createdAt,value
2023-05-15T00:00:51.033Z,24.40
2023-05-15T00:03:19.106Z,24.40
2023-05-15T00:05:47.070Z,24.40
2023-05-15T00:08:14.944Z,24.40
2023-05-15T00:10:47.668Z,24.40
2023-05-15T00:13:28.143Z,24.40
2023-05-15T00:15:56.096Z,24.30
2023-05-15T00:18:23.915Z,24.40
2023-05-15T00:20:53.511Z,24.40
2023-05-15T00:23:21.419Z,24.40
2023-05-15T00:25:49.290Z,24.40
2023-05-15T00:28:17.146Z,24.40
2023-05-15T00:30:45.399Z,24.40
2023-05-15T00:33:13.107Z,24.40
2023-05-15T00:35:40.951Z,24.40
2023-05-15T00:38:08.874Z,24.30
2023-05-15T00:40:39.361Z,24.30
2023-05-15T00:43:08.415Z,24.30
2023-05-15T00:45:41.389Z,24.30
2023-05-15T00:48:10.771Z,24.30
2023-05-15T00:50:41.604Z,24.40
2023-05-15T00:53:09.990Z,24.30
2023-05-15T00:55:39.439Z,24.30
2023-05-15T00:58:08.089Z,24.30
2023-05-15T01:00:36.416Z,24.30
2023-05-15T01:03:06.405Z,24.30
2023-05-15T01:05:34.851Z,24.40
2023-05-15T01:08:18.994Z,24.30
2023-05-15T01:10:48.987Z,24.30
2023-05-15T01:13:18.354Z,24.30
2023-05-15T01:15:46.800Z,24.30
2023-05-15T01:18:14.718Z,24.30
2023-05-15T01:21:15.605Z,24.30
2023-05-15T01:24:17.169Z,24.30
2023-05-15T01:26:50.832Z,24.30
2023-05-15T01:29:30.911Z,24.30
2023-05-15T01:32:03.534Z,24.30
2023-05-15T01:34:58.635Z,24.30
2023-05-15T01:37:29.227Z,24.30
2023-05-15T01:40:02.560Z,24.30
2023-05-15T01:42:36.748Z,24.30
2023-05-15T01:45:06.925Z,24.30
2023-05-15T01:48:01.327Z,24.30
2023-05-15T01:50:31.046Z,24.30
2023-05-15T01:53:02.313Z,24.30
2023-05-15T01:55:31.395Z,24.30
2023-05-15T01:58:04.521Z,24.30
2023-05-15T02:00:33.728Z,24.30
2023-05-15T02:03:02.248Z,24.30
2023-05-15T02:05:31.031Z,24.30
2023-05-15T02:07:59.882Z,24.30
2023-05-15T02:10:28.882Z,24.30
2023-05-15T02:12:56.915Z,24.30
2023-05-15T02:15:25.565Z,24.30
2023-05-15T02:17:53.794Z,24.30
2023-05-15T02:20:23.206Z,24.30
2023-05-15T02:22:51.248Z,24.30
2023-05-15T02:25:22.034Z,24.30
2023-05-15T02:28:00.169Z,24.30
2023-05-15T02:30:39.447Z,24.30
2023-05-15T02:33:19.348Z,24.30
2023-05-15T02:35:59.608Z,24.30
2023-05-15T02:38:31.392Z,24.30
2023-05-15T02:41:01.352Z,24.30
2023-05-15T02:43:29.857Z,24.30
2023-05-15T02:45:58.229Z,24.30
2023-05-15T02:48:27.103Z,24.30
2023-05-15T02:50:55.819Z,24.30
2023-05-15T02:53:23.682Z,24.30
2023-05-15T02:55:51.508Z,24.30
2023-05-15T02:58:19.669Z,24.30
2023-05-15T03:00:47.814Z,24.30
2023-05-15T03:03:16.216Z,24.30
2023-05-15T03:05:44.131Z,24.30
2023-05-15T03:08:12.135Z,24.30
2023-05-15T03:10:40.097Z,24.30
2023-05-15T03:13:08.196Z,24.30
2023-05-15T03:15:36.221Z,24.30
2023-05-15T03:18:04.481Z,24.30
2023-05-15T03:20:32.464Z,24.30
2023-05-15T03:23:00.885Z,24.30
2023-05-15T03:25:29.082Z,24.30
2023-05-15T03:27:57.310Z,24.30
2023-05-15T03:30:25.470Z,24.30
2023-05-15T03:32:53.694Z,24.30
2023-05-15T03:35:22.008Z,24.30
2023-05-15T03:37:50.037Z,24.30
2023-05-15T03:40:18.345Z,24.30
2023-05-15T03:42:46.615Z,24.30
2023-05-15T03:45:14.741Z,24.30
2023-05-15T03:47:43.166Z,24.30
2023-05-15T03:50:11.445Z,24.30
2023-05-15T03:52:41.464Z,24.30
2023-05-15T03:55:10.397Z,24.30
2023-05-15T03:57:38.904Z,24.30
2023-05-15T04:00:11.206Z,24.30
2023-05-15T04:02:42.751Z,24.30
2023-05-15T04:05:10.927Z,24.30
2023-05-15T04:07:39.253Z,24.30
2023-05-15T04:10:07.817Z,24.30
2023-05-15T04:12:36.176Z,24.30
2023-05-15T04:15:17.158Z,24.20
2023-05-15T04:17:46.754Z,24.10
2023-05-15T04:20:16.936Z,24.10
2023-05-15T04:22:46.011Z,24.10
2023-05-15T04:25:15.173Z,24.00
2023-05-15T04:27:43.943Z,24.00
2023-05-15T04:30:13.039Z,24.00
2023-05-15T04:32:41.422Z,23.80
2023-05-15T04:35:12.297Z,23.50
2023-05-15T04:37:41.924Z,23.30
2023-05-15T04:40:10.283Z,23.20
2023-05-15T04:42:39.917Z,23.10
2023-05-15T04:45:09.394Z,23.20
2023-05-15T04:47:37.828Z,23.10
2023-05-15T04:50:06.963Z,23.10
2023-05-15T04:52:35.576Z,23.10
2023-05-15T04:55:03.740Z,23.10
2023-05-15T04:57:31.867Z,23.10
2023-05-15T04:59:59.884Z,23.20
2023-05-15T05:02:28.012Z,23.10
2023-05-15T05:04:55.916Z,23.00
2023-05-15T05:07:23.859Z,23.10
2023-05-15T05:09:51.707Z,23.40
2023-05-15T05:12:19.778Z,23.60
2023-05-15T05:14:47.771Z,23.90
2023-05-15T05:17:15.812Z,24.10
2023-05-15T05:19:43.732Z,24.20
2023-05-15T05:22:11.825Z,24.30
2023-05-15T05:24:39.712Z,24.40
2023-05-15T05:27:07.653Z,24.40
2023-05-15T05:29:35.668Z,24.50
2023-05-15T05:32:03.663Z,24.50
2023-05-15T05:34:31.450Z,24.60
2023-05-15T05:36:59.606Z,24.70
2023-05-15T05:39:27.633Z,24.70
2023-05-15T05:41:56.018Z,24.80
2023-05-15T05:44:24.625Z,24.80
2023-05-15T05:46:53.246Z,24.80
2023-05-15T05:49:21.136Z,24.90
2023-05-15T05:51:49.270Z,24.90
2023-05-15T05:54:18.426Z,25.00
2023-05-15T05:56:46.653Z,25.00
2023-05-15T05:59:14.963Z,25.10
2023-05-15T06:01:43.397Z,24.80
2023-05-15T06:04:11.558Z,24.40
2023-05-15T06:06:39.622Z,24.30
2023-05-15T06:09:07.548Z,24.50
2023-05-15T06:11:35.752Z,24.80
2023-05-15T06:14:03.689Z,24.80
2023-05-15T06:16:31.707Z,24.90
2023-05-15T06:18:59.773Z,25.00
2023-05-15T06:21:27.778Z,25.10
2023-05-15T06:23:55.733Z,25.10
2023-05-15T06:26:23.816Z,25.10
2023-05-15T06:28:51.755Z,25.20
2023-05-15T06:31:19.860Z,25.20
2023-05-15T06:33:47.908Z,25.30
2023-05-15T06:36:17.259Z,25.30
2023-05-15T06:38:45.310Z,25.30
2023-05-15T06:41:13.393Z,25.30
2023-05-15T06:43:41.671Z,25.30
2023-05-15T06:46:10.143Z,25.40
2023-05-15T06:48:38.449Z,25.40
2023-05-15T06:51:06.692Z,25.40
2023-05-15T06:53:35.086Z,25.40
2023-05-15T06:56:03.164Z,25.50
2023-05-15T06:58:31.363Z,25.50
2023-05-15T07:01:00.103Z,25.50
2023-05-15T07:03:29.915Z,25.50
2023-05-15T07:05:58.083Z,25.50
2023-05-15T07:08:27.170Z,25.40
2023-05-15T07:10:55.599Z,25.40
2023-05-15T07:13:24.473Z,25.40
2023-05-15T07:15:52.793Z,25.40
2023-05-15T07:18:20.954Z,25.40
2023-05-15T07:20:49.194Z,25.40
2023-05-15T07:23:17.602Z,25.40
2023-05-15T07:25:46.464Z,25.40
2023-05-15T07:28:14.746Z,25.30
2023-05-15T07:30:43.025Z,25.40
2023-05-15T07:33:11.492Z,25.40
2023-05-15T07:35:39.656Z,25.40
2023-05-15T07:38:08.724Z,25.30
2023-05-15T07:40:37.075Z,25.30
2023-05-15T07:43:05.204Z,25.30
2023-05-15T07:45:33.481Z,25.30
2023-05-15T07:48:14.802Z,25.30
2023-05-15T07:50:43.217Z,25.30
2023-05-15T07:53:11.662Z,25.30
2023-05-15T07:55:41.546Z,25.30
2023-05-15T07:58:09.998Z,25.30
2023-05-15T08:00:38.646Z,25.30
2023-05-15T08:03:07.121Z,25.30
2023-05-15T08:05:35.498Z,25.30
2023-05-15T08:08:03.846Z,25.30
2023-05-15T08:10:32.273Z,25.30
2023-05-15T08:13:00.540Z,25.30
2023-05-15T08:15:29.628Z,25.30
2023-05-15T08:17:58.187Z,25.30
2023-05-15T08:20:26.534Z,25.30
2023-05-15T08:22:54.809Z,25.30
2023-05-15T08:25:23.362Z,25.30
2023-05-15T08:27:51.984Z,25.30
2023-05-15T08:30:20.256Z,25.10
2023-05-15T08:32:49.407Z,24.80
2023-05-15T08:35:17.687Z,24.60
2023-05-15T08:37:46.242Z,24.40
2023-05-15T08:40:15.301Z,24.30
2023-05-15T08:42:53.958Z,24.30
2023-05-15T08:45:23.016Z,24.50
2023-05-15T08:47:51.579Z,24.80
2023-05-15T08:50:20.503Z,24.90
2023-05-15T08:52:50.672Z,25.10
2023-05-15T08:55:19.267Z,25.10
2023-05-15T08:57:49.283Z,25.20
2023-05-15T09:00:22.055Z,25.30
2023-05-15T09:02:51.060Z,25.30
2023-05-15T09:05:19.461Z,25.40
2023-05-15T09:07:48.424Z,25.50
2023-05-15T09:10:17.066Z,25.50
2023-05-15T09:12:45.647Z,25.60
2023-05-15T09:15:18.372Z,25.60
2023-05-15T09:17:46.839Z,25.50
2023-05-15T09:20:35.626Z,25.50
2023-05-15T09:23:05.860Z,25.50
2023-05-15T09:25:41.256Z,25.40
2023-05-15T09:28:11.719Z,25.50
2023-05-15T09:30:42.907Z,25.50
2023-05-15T09:33:12.199Z,25.50
2023-05-15T09:35:41.297Z,25.50
2023-05-15T09:38:12.247Z,25.50
2023-05-15T09:40:43.525Z,25.50
2023-05-15T09:43:12.367Z,25.50
2023-05-15T09:45:40.652Z,25.60
2023-05-15T09:48:10.301Z,25.70
2023-05-15T09:50:41.757Z,25.80
2023-05-15T09:53:13.185Z,25.80
2023-05-15T09:55:43.793Z,25.80
2023-05-15T09:58:16.317Z,25.80
2023-05-15T10:00:47.996Z,25.80
2023-05-15T10:03:22.708Z,25.80
2023-05-15T10:05:51.043Z,25.80
2023-05-15T10:08:30.515Z,25.80
2023-05-15T10:11:01.602Z,25.80
2023-05-15T10:13:34.746Z,25.80
2023-05-15T10:16:04.299Z,25.80
2023-05-15T10:18:35.350Z,25.80
2023-05-15T10:21:04.871Z,25.80
2023-05-15T10:23:37.754Z,25.90
2023-05-15T10:26:16.266Z,25.80
2023-05-15T10:28:46.547Z,25.80
2023-05-15T10:31:15.369Z,25.80
2023-05-15T10:33:45.042Z,25.80
2023-05-15T10:36:15.124Z,25.80
2023-05-15T10:38:44.760Z,25.80
2023-05-15T10:41:17.944Z,25.80
2023-05-15T10:43:47.160Z,25.80
2023-05-15T10:46:16.607Z,25.80
2023-05-15T10:48:44.964Z,25.80
2023-05-15T10:51:17.707Z,25.80
2023-05-15T10:53:46.700Z,25.80
2023-05-15T10:56:17.342Z,25.80
2023-05-15T10:58:49.960Z,25.80
2023-05-15T11:01:34.295Z,25.80
2023-05-15T11:04:13.063Z,25.80
2023-05-15T11:06:46.256Z,25.80
2023-05-15T11:09:39.084Z,25.80
2023-05-15T11:12:12.032Z,25.70
2023-05-15T11:14:42.872Z,25.80
2023-05-15T11:17:12.782Z,25.80
2023-05-15T11:19:53.265Z,25.80
2023-05-15T11:22:30.218Z,25.80
2023-05-15T11:25:14.778Z,25.80
2023-05-15T11:27:45.034Z,25.80
2023-05-15T11:30:15.361Z,25.80
2023-05-15T11:33:05.024Z,25.80
2023-05-15T11:35:34.246Z,25.80
2023-05-15T11:38:11.724Z,25.90
2023-05-15T11:40:48.734Z,25.90
2023-05-15T11:43:36.850Z,25.90
2023-05-15T11:46:10.429Z,25.90
2023-05-15T11:48:42.417Z,25.80
2023-05-15T11:51:30.982Z,25.80
2023-05-15T11:54:01.713Z,25.80
2023-05-15T11:56:30.780Z,25.80
2023-05-15T11:59:00.557Z,25.80
2023-05-15T12:01:38.790Z,25.80
2023-05-15T12:04:15.179Z,25.80
2023-05-15T12:06:47.760Z,25.80
2023-05-15T12:09:17.938Z,26.00
2023-05-15T12:11:53.373Z,26.00
2023-05-15T12:14:31.837Z,26.00
2023-05-15T12:17:03.113Z,26.10
2023-05-15T12:19:32.422Z,26.10
2023-05-15T12:22:00.481Z,26.10
2023-05-15T12:24:28.517Z,26.10
2023-05-15T12:26:57.668Z,26.10
2023-05-15T12:29:27.200Z,26.10
2023-05-15T12:31:55.703Z,26.10
2023-05-15T12:34:24.896Z,26.00
2023-05-15T12:36:52.907Z,26.00
2023-05-15T12:39:21.357Z,26.00
2023-05-15T12:41:50.228Z,26.00
2023-05-15T12:44:18.714Z,26.00
2023-05-15T12:46:48.120Z,26.00
2023-05-15T12:49:22.519Z,26.00
2023-05-15T12:51:50.737Z,26.00
2023-05-15T12:54:20.728Z,26.00
2023-05-15T12:56:49.048Z,26.00
2023-05-15T13:02:23.080Z,26.00
2023-05-15T13:04:52.141Z,26.00
2023-05-15T13:07:21.694Z,26.00
2023-05-15T13:10:06.163Z,26.00
2023-05-15T13:12:47.168Z,26.00
2023-05-15T13:15:30.464Z,25.90
2023-05-15T13:18:06.989Z,26.00
2023-05-15T13:20:43.703Z,25.90
2023-05-15T13:23:13.507Z,25.90
2023-05-15T13:25:41.824Z,25.90
2023-05-15T13:28:11.302Z,25.90
2023-05-15T13:30:42.099Z,26.00
2023-05-15T13:33:12.724Z,26.00
2023-05-15T13:35:43.272Z,26.00
2023-05-15T13:38:12.204Z,26.00
2023-05-15T13:40:40.494Z,26.00
2023-05-15T13:43:08.805Z,25.90
2023-05-15T13:45:37.128Z,25.90
2023-05-15T13:48:05.596Z,25.80
2023-05-15T13:50:33.729Z,25.80
2023-05-15T13:53:01.864Z,25.80
2023-05-15T13:55:30.138Z,25.80
2023-05-15T13:57:58.375Z,25.80
2023-05-15T14:00:26.588Z,25.80
2023-05-15T14:02:55.294Z,25.80
2023-05-15T14:05:23.661Z,25.80
2023-05-15T14:07:51.878Z,25.80
2023-05-15T14:10:20.018Z,25.80
2023-05-15T14:12:48.216Z,25.80
2023-05-15T14:15:16.733Z,25.80
2023-05-15T14:17:47.072Z,25.80
2023-05-15T14:20:15.571Z,25.90
2023-05-15T14:22:43.715Z,25.80
2023-05-15T14:25:12.105Z,25.80
2023-05-15T14:27:41.310Z,25.90
2023-05-15T14:30:09.894Z,26.00
2023-05-15T14:32:38.127Z,26.00
2023-05-15T14:35:06.687Z,26.10
2023-05-15T14:37:35.055Z,26.10
2023-05-15T14:40:05.236Z,26.10
2023-05-15T14:42:33.723Z,26.10
2023-05-15T14:45:02.201Z,26.10
2023-05-15T14:47:31.961Z,26.10
2023-05-15T14:50:00.196Z,26.00
2023-05-15T14:52:28.584Z,26.00
2023-05-15T14:55:08.415Z,26.00
2023-05-15T14:57:38.844Z,26.10
2023-05-15T15:00:08.415Z,26.00
2023-05-15T15:02:36.774Z,26.00
2023-05-15T15:05:05.428Z,26.00
2023-05-15T15:08:00.134Z,26.00
2023-05-15T15:10:28.766Z,26.00
2023-05-15T15:12:57.466Z,25.90
2023-05-15T15:15:26.344Z,25.90
2023-05-15T15:17:56.845Z,25.90
2023-05-15T15:20:26.573Z,25.90
2023-05-15T15:22:56.049Z,25.90
2023-05-15T15:25:24.449Z,25.90
2023-05-15T15:27:53.648Z,25.90
2023-05-15T15:30:22.150Z,25.90
2023-05-15T15:32:50.456Z,25.90
2023-05-15T15:35:21.577Z,25.80
2023-05-15T15:37:49.913Z,25.90
2023-05-15T15:40:19.374Z,25.80
2023-05-15T15:42:47.332Z,25.80
2023-05-15T15:45:15.562Z,25.80
2023-05-15T15:47:44.752Z,25.80
2023-05-15T15:50:12.966Z,25.80
2023-05-15T15:52:41.602Z,25.80
2023-05-15T15:55:10.173Z,25.70
2023-05-15T15:57:38.450Z,25.70
2023-05-15T16:00:08.508Z,25.70
2023-05-15T16:02:37.079Z,25.70
2023-05-15T16:05:05.915Z,25.70
2023-05-15T16:07:34.570Z,25.60
2023-05-15T16:10:11.379Z,25.70
2023-05-15T16:12:41.042Z,25.60
2023-05-15T16:17:40.904Z,25.60
2023-05-15T16:20:10.024Z,25.50
2023-05-15T16:22:38.687Z,25.50
2023-05-15T16:25:07.044Z,25.50
2023-05-15T16:27:34.991Z,25.40
2023-05-15T16:30:03.152Z,25.40
2023-05-15T16:32:31.974Z,25.30
2023-05-15T16:35:00.166Z,25.30
2023-05-15T16:37:28.277Z,25.30
2023-05-15T16:39:56.316Z,25.30
2023-05-15T16:42:24.427Z,25.30
2023-05-15T16:44:52.856Z,25.30
2023-05-15T16:47:20.923Z,25.30
2023-05-15T16:49:50.145Z,25.30
2023-05-15T16:52:18.988Z,25.20
2023-05-15T16:54:47.176Z,25.30
2023-05-15T16:57:15.509Z,25.20
2023-05-15T16:59:43.492Z,25.20
2023-05-15T17:02:11.884Z,25.20
2023-05-15T17:04:40.179Z,25.10
2023-05-15T17:07:09.316Z,25.10
2023-05-15T17:09:39.202Z,25.10
2023-05-15T17:12:07.697Z,25.10
2023-05-15T17:14:35.739Z,25.10
2023-05-15T17:17:04.041Z,25.10
2023-05-15T17:19:34.830Z,25.10
2023-05-15T17:22:03.083Z,25.10
2023-05-15T17:24:49.506Z,25.00
2023-05-15T17:27:20.211Z,25.00
2023-05-15T17:29:48.754Z,25.00
2023-05-15T17:32:17.852Z,25.00
2023-05-15T17:34:46.593Z,24.90
2023-05-15T17:37:15.191Z,24.90
2023-05-15T17:39:43.504Z,24.90
2023-05-15T17:42:11.636Z,24.90
2023-05-15T17:44:39.731Z,24.80
2023-05-15T17:47:09.930Z,24.80
2023-05-15T17:49:39.273Z,24.80
2023-05-15T17:52:08.864Z,24.80
2023-05-15T17:54:37.064Z,24.80
2023-05-15T17:57:05.805Z,24.80
2023-05-15T17:59:33.909Z,24.80
2023-05-15T18:02:02.891Z,24.70
2023-05-15T18:04:31.043Z,24.70
2023-05-15T18:06:59.432Z,24.70
2023-05-15T18:09:30.749Z,24.60
2023-05-15T18:11:58.856Z,24.60
2023-05-15T18:14:27.097Z,24.60
2023-05-15T18:16:55.739Z,24.50
2023-05-15T18:19:24.041Z,24.50
2023-05-15T18:21:52.802Z,24.50
2023-05-15T18:24:21.050Z,24.50
2023-05-15T18:26:49.109Z,24.40
2023-05-15T18:29:17.182Z,24.40
2023-05-15T18:31:45.323Z,24.40
2023-05-15T18:34:13.414Z,24.40
2023-05-15T18:36:41.463Z,24.40
2023-05-15T18:39:09.444Z,24.30
2023-05-15T18:41:37.470Z,24.30
2023-05-15T18:44:05.989Z,24.30
2023-05-15T18:46:34.432Z,24.30
2023-05-15T18:49:02.467Z,24.30
2023-05-15T18:51:31.501Z,24.20
2023-05-15T18:53:59.755Z,24.20
2023-05-15T18:56:28.605Z,24.20
2023-05-15T18:58:56.731Z,24.20
2023-05-15T19:01:24.737Z,24.10
2023-05-15T19:03:52.905Z,24.10
2023-05-15T19:06:20.901Z,24.10
2023-05-15T19:08:49.206Z,24.10
2023-05-15T19:11:20.444Z,24.10
2023-05-15T19:13:48.424Z,24.10
2023-05-15T19:16:16.615Z,24.00
2023-05-15T19:18:44.730Z,24.00
2023-05-15T19:21:12.953Z,24.00
2023-05-15T19:23:41.025Z,24.00
2023-05-15T19:26:10.965Z,23.90
2023-05-15T19:28:39.058Z,23.90
2023-05-15T19:31:14.089Z,23.90
2023-05-15T19:33:49.107Z,23.80
2023-05-15T19:36:18.736Z,23.90
2023-05-15T19:38:46.742Z,23.80
2023-05-15T19:41:14.831Z,23.80
2023-05-15T19:43:46.544Z,23.80
2023-05-15T19:46:14.754Z,23.90
2023-05-15T19:48:43.348Z,23.80
2023-05-15T19:51:11.502Z,23.80
2023-05-15T19:53:41.952Z,23.80
2023-05-15T19:56:09.938Z,23.80
2023-05-15T19:58:38.117Z,23.80
2023-05-15T20:01:06.259Z,23.80
2023-05-15T20:03:34.534Z,23.80
2023-05-15T20:06:03.193Z,23.70
2023-05-15T20:08:31.161Z,23.70
2023-05-15T20:10:59.160Z,23.70
2023-05-15T20:13:27.805Z,23.70
2023-05-15T20:16:00.869Z,23.70
2023-05-15T20:18:32.172Z,23.70
2023-05-15T20:21:02.287Z,23.70
2023-05-15T20:23:30.439Z,23.70
2023-05-15T20:25:58.408Z,23.70
2023-05-15T20:28:27.623Z,23.70
2023-05-15T20:30:57.433Z,23.60
2023-05-15T20:33:25.816Z,23.70
2023-05-15T20:35:54.243Z,23.70
2023-05-15T20:38:25.438Z,23.60
2023-05-15T20:40:53.508Z,23.70
2023-05-15T20:43:21.657Z,23.60
2023-05-15T20:45:49.792Z,23.60
2023-05-15T20:48:17.887Z,23.60
2023-05-15T20:50:46.012Z,23.70
2023-05-15T20:53:14.000Z,23.60
2023-05-15T20:55:42.024Z,23.60
2023-05-15T20:58:10.102Z,23.60
2023-05-15T21:00:38.244Z,23.60
2023-05-15T21:03:06.554Z,23.60
2023-05-15T21:05:34.712Z,23.60
2023-05-15T21:08:03.197Z,23.60
2023-05-15T21:10:31.174Z,23.60
2023-05-15T21:13:00.005Z,23.60
2023-05-15T21:15:27.974Z,23.60
2023-05-15T21:17:56.101Z,23.50
2023-05-15T21:20:24.612Z,23.50
2023-05-15T21:22:52.720Z,23.50
2023-05-15T21:25:20.906Z,23.50
2023-05-15T21:27:48.908Z,23.50
2023-05-15T21:30:16.939Z,23.50
2023-05-15T21:32:45.060Z,23.50
2023-05-15T21:35:13.091Z,23.50
2023-05-15T21:37:41.319Z,23.50
2023-05-15T21:40:09.977Z,23.50
2023-05-15T21:42:38.245Z,23.50
2023-05-15T21:45:07.136Z,23.50
2023-05-15T21:47:35.436Z,23.50
2023-05-15T21:50:03.553Z,23.40
2023-05-15T21:52:31.680Z,23.40
2023-05-15T21:55:00.651Z,23.40
2023-05-15T21:57:29.121Z,23.40
2023-05-15T21:59:57.269Z,23.40
2023-05-15T22:02:25.144Z,23.40
2023-05-15T22:04:53.292Z,23.40
2023-05-15T22:07:21.353Z,23.40
2023-05-15T22:09:49.376Z,23.30
2023-05-15T22:12:18.166Z,23.40
2023-05-15T22:14:57.855Z,23.40
2023-05-15T22:17:29.403Z,23.40
2023-05-15T22:20:07.327Z,23.40
2023-05-15T22:22:36.477Z,23.40
2023-05-15T22:25:05.762Z,23.30
2023-05-15T22:27:34.970Z,23.30
2023-05-15T22:30:03.650Z,23.30
2023-05-15T22:32:31.749Z,23.30
2023-05-15T22:35:00.152Z,23.30
2023-05-15T22:37:28.197Z,23.30
2023-05-15T22:39:56.724Z,23.30
2023-05-15T22:42:24.753Z,23.30
2023-05-15T22:44:54.152Z,23.30
2023-05-15T22:47:22.344Z,23.30
2023-05-15T22:49:51.106Z,23.30
2023-05-15T22:52:19.204Z,23.30
2023-05-15T22:54:47.623Z,23.30
2023-05-15T22:57:15.754Z,23.30
2023-05-15T22:59:44.637Z,23.30
2023-05-15T23:02:12.805Z,23.20
2023-05-15T23:04:41.106Z,23.30
2023-05-15T23:07:09.205Z,23.30
2023-05-15T23:09:37.135Z,23.30
2023-05-15T23:12:05.694Z,23.30
2023-05-15T23:14:34.455Z,23.30
2023-05-15T23:17:03.136Z,23.30
2023-05-15T23:19:31.131Z,23.30
2023-05-15T23:21:59.075Z,23.30
2023-05-15T23:24:27.027Z,23.20
2023-05-15T23:26:55.050Z,23.30
2023-05-15T23:29:23.088Z,23.30
2023-05-15T23:31:51.237Z,23.20
2023-05-15T23:34:19.340Z,23.20
2023-05-15T23:36:47.312Z,23.20
2023-05-15T23:39:16.544Z,23.20
2023-05-15T23:41:44.588Z,23.20
2023-05-15T23:44:12.592Z,23.20
2023-05-15T23:46:40.727Z,23.20
2023-05-15T23:49:09.039Z,23.20
2023-05-15T23:51:37.135Z,23.20
2023-05-15T23:54:05.528Z,23.20
2023-05-15T23:56:33.414Z,23.20
2023-05-15T23:59:01.456Z,23.20
